D/T METAR WX W/SPE G/SPE TEMP DEWP FEEL
31/01/23 13:20 EGPC 311320Z 26026KT 9999 VCSH FEW010 SCT019CB 05/01 Q1003 VCSH 29.9mph 5°C 1°C 3.1°C
31/01/23 12:20 EGPC 311220Z 26022KT 9999 VCSH FEW019CB SCT033 04/01 Q1003 VCSH 25.3mph 4°C 1°C 2.1°C
30/01/23 21:50 EGPC 302150Z AUTO 18013KT 8000 -RA FEW030/// OVC038/// 06/04 Q1008 -RA 15.0mph 6°C 4°C 5.0°C
30/01/23 12:50 EGPC 301250Z 30011KT 9999 VCSH FEW036 SCT042 06/01 Q1016 VCSH 12.7mph 6°C 1°C 4.1°C
30/01/23 11:50 EGPC 301150Z 30011KT 9999 VCSH BKN039 05/01 Q1017 VCSH 12.7mph 5°C 1°C 3.1°C
30/01/23 10:50 EGPC 301050Z 30016KT 9999 VCSH SCT039 05/01 Q1016 VCSH 18.4mph 5°C 1°C 3.1°C
30/01/23 10:20 EGPC 301020Z 30016KT 9999 SCT039 05/00 Q1016 18.4mph 5°C 0°C 2.8°C
30/01/23 07:50 EGPC 300750Z 29014KT 9999 -SHRAGS SCT025CB SCT033 03/01 Q1013 -SHRA -SHGS 16.1mph 3°C 1°C 1.1°C
30/01/23 06:50 EGPC 300650Z AUTO 30026KT 9000 -RA SCT018/// BKN034/// BKN040/// 03/01 Q1012 RERA -RA 29.9mph 3°C 1°C 1.1°C
09/01/23 06:50 EGPC 090650Z AUTO 21006KT 180V240 9999 NCD 03/01 Q0981 6.9mph 3°C 1°C 1.1°C
09/01/23 06:20 EGPC 090620Z AUTO 20004KT 150V220 9999 NCD 04/01 Q0981 4.6mph 4°C 1°C 2.1°C
09/01/23 05:50 EGPC 090550Z AUTO 19006KT 9999 NCD 04/02 Q0981 6.9mph 4°C 2°C 2.4°C
09/01/23 05:20 EGPC 090520Z AUTO 19006KT 9999 NCD 04/02 Q0980 6.9mph 4°C 2°C 2.4°C
09/01/23 04:50 EGPC 090450Z AUTO 21006KT 9999 NCD 04/01 Q0980 6.9mph 4°C 1°C 2.1°C
09/01/23 04:20 EGPC 090420Z AUTO 21007KT 9999 NCD 04/02 Q0979 8.1mph 4°C 2°C 2.4°C
09/01/23 03:50 EGPC 090350Z AUTO 22006KT 9999 NCD 04/01 Q0979 6.9mph 4°C 1°C 2.1°C
09/01/23 03:20 EGPC 090320Z AUTO 20006KT 170V240 9999 NCD 04/02 Q0979 6.9mph 4°C 2°C 2.4°C
09/01/23 02:50 EGPC 090250Z AUTO 19005KT 160V230 9999 NCD 04/02 Q0979 5.8mph 4°C 2°C 2.4°C
09/01/23 01:50 EGPC 090150Z AUTO 21005KT 170V240 9999 NCD 04/02 Q0978 5.8mph 4°C 2°C 2.4°C
09/01/23 01:20 EGPC 090120Z AUTO 20007KT 9999 NCD 04/02 Q0978 8.1mph 4°C 2°C 2.4°C
09/01/23 00:50 EGPC 090050Z AUTO 19005KT 9999 NCD 04/02 Q0977 5.8mph 4°C 2°C 2.4°C
09/01/23 00:20 EGPC 090020Z AUTO 18006KT 9999 FEW045/// 04/02 Q0977 6.9mph 4°C 2°C 2.4°C
08/01/23 23:50 EGPC 082350Z AUTO 19006KT 9999 NCD 04/02 Q0977 6.9mph 4°C 2°C 2.4°C
08/01/23 22:50 EGPC 082250Z AUTO 19007KT 160V220 9999 NCD 05/02 Q0976 8.1mph 5°C 2°C 3.4°C
08/01/23 22:20 EGPC 082220Z AUTO 18009KT 9999 SCT047/// 05/02 Q0976 10.4mph 5°C 2°C 3.4°C
08/01/23 21:50 EGPC 082150Z AUTO 18009KT 9999 BKN033/// 05/03 Q0976 10.4mph 5°C 3°C 3.7°C
08/01/23 20:20 EGPC 082020Z AUTO 17014KT 9999 NCD 06/01 Q0975 16.1mph 6°C 1°C 4.1°C
08/01/23 19:20 EGPC 081920Z AUTO 17019KT 9999 NCD 07/01 Q0975 21.9mph 7°C 1°C 5.1°C
08/01/23 18:50 EGPC 081850Z 17019KT CAVOK 07/01 Q0975 21.9mph 7°C 1°C 5.1°C
08/01/23 18:20 EGPC 081820Z 17018KT CAVOK 07/00 Q0975 20.7mph 7°C 0°C 4.8°C
08/01/23 17:50 EGPC 081750Z AUTO 18017G29KT 9999 NCD 07/M00 Q0974 19.6mph 33.4mph 7°C 0°C 4.8°C
08/01/23 17:20 EGPC 081720Z AUTO 18017G32KT 140V210 9999 NCD 07/M00 Q0975 19.6mph 36.8mph 7°C 0°C 4.8°C
08/01/23 16:50 EGPC 081650Z AUTO 18016KT 9999 NCD 07/M00 Q0975 18.4mph 7°C 0°C 4.8°C
08/01/23 16:20 EGPC 081620Z 18018G30KT 150V220 9999 FEW030 07/M00 Q0975 20.7mph 34.5mph 7°C 0°C 4.8°C
08/01/23 15:50 EGPC 081550Z 18019G30KT 9999 FEW030 07/00 Q0974 21.9mph 34.5mph 7°C 0°C 4.8°C
08/01/23 15:20 EGPC 081520Z 17019G29KT 9999 FEW030 07/01 Q0974 21.9mph 33.4mph 7°C 1°C 5.1°C
08/01/23 14:20 EGPC 081420Z AUTO 17023G35KT 9999 NCD 08/00 Q0974 26.5mph 40.3mph 8°C 0°C 5.8°C
08/01/23 13:50 EGPC 081350Z AUTO 18023G39KT 9999 NCD 07/M01 Q0974 26.5mph 44.9mph 7°C -1°C 4.6°C
08/01/23 13:20 EGPC 081320Z AUTO 18024G37KT 9999 NCD 07/M01 Q0973 27.6mph 42.6mph 7°C -1°C 4.6°C
08/01/23 12:50 EGPC 081250Z AUTO 17025G37KT 9999 NCD 08/M00 Q0974 28.8mph 42.6mph 8°C 0°C 5.8°C
08/01/23 12:20 EGPC 081220Z AUTO 17024G37KT 150V210 9999 NCD 08/00 Q0973 27.6mph 42.6mph 8°C 0°C 5.8°C
08/01/23 11:50 EGPC 081150Z AUTO 18024G47KT 150V220 9999 NCD 08/00 Q0973 27.6mph 54.1mph 8°C 0°C 5.8°C
08/01/23 11:20 EGPC 081120Z AUTO 18026G39KT 9999 NCD 07/M01 Q0973 29.9mph 44.9mph 7°C -1°C 4.6°C
08/01/23 10:50 EGPC 081050Z AUTO 17029G42KT 9999 NCD 07/01 Q0973 33.4mph 48.3mph 7°C 1°C 5.1°C
08/01/23 10:20 EGPC 081020Z AUTO 17026G40KT 9999 NCD 07/02 Q0973 29.9mph 46.0mph 7°C 2°C 5.4°C
08/01/23 09:50 EGPC 080950Z AUTO 17027G40KT 9999 NCD 07/01 Q0973 31.1mph 46.0mph 7°C 1°C 5.1°C
08/01/23 09:20 EGPC 080920Z AUTO 17023G37KT 9999 NCD 07/01 Q0974 26.5mph 42.6mph 7°C 1°C 5.1°C
08/01/23 08:50 EGPC 080850Z AUTO 18021G37KT 9999 NCD 07/00 Q0974 24.2mph 42.6mph 7°C 0°C 4.8°C
08/01/23 08:20 EGPC 080820Z AUTO 18020G32KT 9999 NCD 07/01 Q0974 23.0mph 36.8mph 7°C 1°C 5.1°C
08/01/23 07:50 EGPC 080750Z AUTO 18019G31KT 160V220 9999 NCD 07/01 Q0974 21.9mph 35.7mph 7°C 1°C 5.1°C
08/01/23 07:20 EGPC 080720Z AUTO 18017G29KT 9999 NCD 07/02 Q0974 19.6mph 33.4mph 7°C 2°C 5.4°C
08/01/23 06:50 EGPC 080650Z AUTO 18016KT 9999 NCD 07/02 Q0974 18.4mph 7°C 2°C 5.4°C
08/01/23 06:20 EGPC 080620Z AUTO 19012KT 160V220 9999 NCD 06/02 Q0974 13.8mph 6°C 2°C 4.4°C
08/01/23 05:50 EGPC 080550Z AUTO 18012G23KT 140V210 9999 FEW030/// 07/03 Q0974 13.8mph 26.5mph 7°C 3°C 5.7°C
08/01/23 04:50 EGPC 080450Z AUTO 19011KT 160V230 9999 NCD 06/03 Q0975 12.7mph 6°C 3°C 4.7°C
08/01/23 04:20 EGPC 080420Z AUTO 18014KT 9999 NCD 07/03 Q0974 16.1mph 7°C 3°C 5.7°C
08/01/23 03:50 EGPC 080350Z AUTO 20019G31KT 160V230 9999 SCT026/// BKN033/// 07/03 Q0974 21.9mph 35.7mph 7°C 3°C 5.7°C
08/01/23 03:20 EGPC 080320Z AUTO 17016KT 7000 -RA FEW029/// BKN034/// 08/04 Q0974 -RA 18.4mph 8°C 4°C 7.0°C
08/01/23 02:50 EGPC 080250Z AUTO 16017KT 9999 BKN039/// 08/04 Q0974 19.6mph 8°C 4°C 7.0°C
08/01/23 02:20 EGPC 080220Z AUTO 15020KT 9999 SCT044/// 07/04 Q0974 23.0mph 7°C 4°C 6.0°C
08/01/23 01:50 EGPC 080150Z AUTO 15018KT 9999 NCD 07/04 Q0975 20.7mph 7°C 4°C 6.0°C
08/01/23 01:20 EGPC 080120Z AUTO 14019KT 9999 NCD 07/04 Q0974 21.9mph 7°C 4°C 6.0°C
08/01/23 00:20 EGPC 080020Z AUTO 15020G30KT 9999 NCD 07/04 Q0974 23.0mph 34.5mph 7°C 4°C 6.0°C
07/01/23 23:50 EGPC 072350Z AUTO 15023G33KT 9999 FEW039/// 08/04 Q0975 26.5mph 38.0mph 8°C 4°C 7.0°C
07/01/23 23:20 EGPC 072320Z AUTO 15023KT 9999 SCT044/// 07/04 Q0975 26.5mph 7°C 4°C 6.0°C
07/01/23 22:50 EGPC 072250Z AUTO 15021G32KT 9999 NCD 08/04 Q0975 24.2mph 36.8mph 8°C 4°C 7.0°C
07/01/23 22:20 EGPC 072220Z AUTO 14021KT 9999 NCD 07/04 Q0976 24.2mph 7°C 4°C 6.0°C
07/01/23 21:50 EGPC 072150Z AUTO 15015G25KT 130V190 9999 NCD 07/04 Q0976 17.3mph 28.8mph 7°C 4°C 6.0°C
07/01/23 21:20 EGPC 072120Z AUTO 15017G27KT 9999 NCD 07/03 Q0976 19.6mph 31.1mph 7°C 3°C 5.7°C
07/01/23 20:50 EGPC 072050Z AUTO 15017KT 9999 NCD 07/04 Q0977 19.6mph 7°C 4°C 6.0°C
07/01/23 20:20 EGPC 072020Z AUTO 15016KT 9999 NCD 07/04 Q0977 18.4mph 7°C 4°C 6.0°C
07/01/23 19:50 EGPC 071950Z AUTO 15015KT 9999 NCD 07/04 Q0978 17.3mph 7°C 4°C 6.0°C
07/01/23 19:20 EGPC 071920Z AUTO 15017KT 9999 NCD 07/03 Q0978 19.6mph 7°C 3°C 5.7°C
07/01/23 18:50 EGPC 071850Z AUTO 17016KT 9999 NCD 08/03 Q0978 18.4mph 8°C 3°C 6.7°C
07/01/23 18:20 EGPC 071820Z AUTO 17016KT 130V190 9999 NCD 08/03 Q0978 18.4mph 8°C 3°C 6.7°C
07/01/23 17:50 EGPC 071750Z AUTO 16014KT 130V190 9999 FEW035/// 08/05 Q0979 16.1mph 8°C 5°C 7.3°C
07/01/23 17:20 EGPC 071720Z AUTO 16012KT 9999 SCT039/// 08/05 Q0979 13.8mph 8°C 5°C 7.3°C
07/01/23 16:50 EGPC 071650Z AUTO 15007KT 9999 BKN039/// 07/05 Q0979 8.1mph 7°C 5°C 6.3°C
07/01/23 16:20 EGPC 071620Z AUTO 16008KT 9999 FEW041/// 07/05 Q0980 9.2mph 7°C 5°C 6.3°C
07/01/23 15:50 EGPC 071550Z AUTO 15005KT 9999 NCD 06/05 Q0980 5.8mph 6°C 5°C 5.3°C
07/01/23 15:20 EGPC 071520Z AUTO 17003KT 140V200 9999 NCD 07/06 Q0981 3.5mph 7°C 6°C 6.6°C
07/01/23 14:50 EGPC 071450Z AUTO 17005KT 9999 NCD 08/06 Q0981 5.8mph 8°C 6°C 7.6°C
07/01/23 14:20 EGPC 071420Z AUTO 14004KT 9999 NCD 07/06 Q0981 4.6mph 7°C 6°C 6.6°C
07/01/23 13:20 EGPC 071320Z AUTO 17004KT 9999 NCD 07/05 Q0982 4.6mph 7°C 5°C 6.3°C
07/01/23 12:50 EGPC 071250Z AUTO 19004KT 9999 NCD 07/06 Q0983 4.6mph 7°C 6°C 6.6°C
07/01/23 12:20 EGPC 071220Z AUTO 20003KT 170V230 9999 NCD 07/06 Q0983 3.5mph 7°C 6°C 6.6°C
07/01/23 11:50 EGPC 071150Z AUTO 17005KT 9999 NCD 07/06 Q0984 5.8mph 7°C 6°C 6.6°C
07/01/23 11:20 EGPC 071120Z AUTO 19005KT 170V230 9999 NCD 08/06 Q0984 5.8mph 8°C 6°C 7.6°C
07/01/23 10:50 EGPC 071050Z AUTO 20007KT 9999 NCD 08/06 Q0985 8.1mph 8°C 6°C 7.6°C
07/01/23 10:20 EGPC 071020Z AUTO 18007KT 9999 NCD 08/07 Q0985 8.1mph 8°C 7°C 8.0°C
07/01/23 09:50 EGPC 070950Z AUTO 17008KT 9999 NCD 08/07 Q0985 9.2mph 8°C 7°C 8.0°C
07/01/23 09:20 EGPC 070920Z AUTO 18009KT 9999 NCD 08/07 Q0985 10.4mph 8°C 7°C 8.0°C
07/01/23 08:50 EGPC 070850Z AUTO 16009KT 9999 NCD 08/07 Q0985 10.4mph 8°C 7°C 8.0°C
07/01/23 08:20 EGPC 070820Z AUTO 16009KT 9999 NCD 08/06 Q0985 10.4mph 8°C 6°C 7.6°C
07/01/23 07:50 EGPC 070750Z AUTO 16008KT 9999 NCD 08/06 Q0986 9.2mph 8°C 6°C 7.6°C
07/01/23 06:50 EGPC 070650Z AUTO 17011KT 9999 -RA FEW010/// OVC049/// 08/07 Q0987 -RA 12.7mph 8°C 7°C 8.0°C